Portada
METAR-TAF:

METAR-TAF

Aeroports :

Albenga, Itàlia

latitud: 44-03N, longitud: 008-07E, altitud: 45 m

Observació

L'informe es va fer fa 4 hores i 54 minuts, a les 17:50 UTC
Vent 6 kt del Est
Temperatura 26°C
Humitat 70%
Pressió 1018 hPa
Visibilitat 10 km o més
Escasses núvols a una alçada de 3500 ft

METAR: LIMG 201750Z 08006KT 9999 FEW035 26/20 Q1018

Hora: 00:44 (22:44 UTC)


TAF: manca

Observacions i pronòstics meteorològics de més de 4000 aeroports (METAR i TAF).

Les estacions disponibles són els punts grocs i vermells al mapa.

Posi el ratolí al punt desitjat per veure el nom de l'estació.

Feu clic per veure les observacions i els pronòstics meteorològics.

Per canviar el mapa: feu clic els botons verds amb una creu de color negre per apropar; al botó verd amb un guió per allunyar la imatge; o en les fletxes verdes per a mapes adjacents.


METAR-TAF: